createdAt,value
2022-10-01T00:01:43.597Z,27.40
2022-10-01T00:04:46.287Z,27.75
2022-10-01T00:10:31.556Z,22.27
2022-10-01T00:13:25.712Z,24.95
2022-10-01T00:16:05.929Z,24.23
2022-10-01T00:22:44.691Z,22.45
2022-10-01T00:25:51.165Z,26.20
2022-10-01T00:29:15.614Z,27.77
2022-10-01T00:32:10.042Z,27.98
2022-10-01T00:34:56.237Z,22.58
2022-10-01T00:37:45.427Z,22.92
2022-10-01T00:40:20.318Z,22.60
2022-10-01T00:42:48.240Z,21.65
2022-10-01T00:49:07.683Z,18.30
2022-10-01T00:51:43.342Z,16.75
2022-10-01T00:54:37.197Z,14.90
2022-10-01T00:57:06.301Z,16.83
2022-10-01T00:59:52.300Z,17.85
2022-10-01T01:02:19.375Z,16.98
2022-10-01T01:04:55.585Z,16.98
2022-10-01T01:07:41.233Z,23.52
2022-10-01T01:10:09.592Z,15.02
2022-10-01T01:12:59.501Z,14.82
2022-10-01T01:16:33.639Z,13.65
2022-10-01T01:19:43.357Z,14.50
2022-10-01T01:22:11.806Z,17.10
2022-10-01T01:24:49.023Z,15.02
2022-10-01T01:27:47.680Z,14.85
2022-10-01T01:30:16.792Z,18.73
2022-10-01T01:32:48.971Z,17.05
2022-10-01T01:35:23.854Z,17.73
2022-10-01T01:37:54.823Z,15.88
2022-10-01T01:40:22.243Z,19.70
2022-10-01T01:42:50.291Z,24.52
2022-10-01T01:45:23.301Z,17.42
2022-10-01T01:47:55.429Z,18.38
2022-10-01T01:50:29.053Z,21.05
2022-10-01T01:52:56.305Z,19.65
2022-10-01T01:55:27.332Z,22.02
2022-10-01T01:57:54.565Z,25.15
2022-10-01T02:00:45.170Z,28.77
2022-10-01T02:07:05.490Z,25.97
2022-10-01T02:10:25.617Z,28.05
2022-10-01T02:13:28.228Z,28.10
2022-10-01T02:16:05.044Z,33.65
2022-10-01T02:20:21.799Z,31.40
2022-10-01T02:23:15.072Z,31.55
2022-10-01T02:26:16.556Z,36.67
2022-10-01T02:28:44.598Z,30.73
2022-10-01T02:31:15.696Z,30.70
2022-10-01T02:33:46.225Z,29.92
2022-10-01T02:36:14.383Z,30.73
2022-10-01T02:38:43.783Z,32.28
2022-10-01T02:41:14.063Z,35.03
2022-10-01T02:44:37.454Z,31.88
2022-10-01T02:48:17.060Z,31.35
2022-10-01T02:50:52.299Z,31.05
2022-10-01T02:53:37.279Z,39.85
2022-10-01T02:56:04.973Z,32.38
2022-10-01T02:59:05.195Z,32.55
2022-10-01T03:01:32.456Z,31.58
2022-10-01T03:04:00.078Z,31.60
2022-10-01T03:06:28.040Z,31.88
2022-10-01T03:08:55.150Z,31.33
2022-10-01T03:11:22.100Z,35.95
2022-10-01T03:13:49.383Z,32.50
2022-10-01T03:16:50.584Z,30.55
2022-10-01T03:19:17.759Z,37.13
2022-10-01T03:21:44.685Z,35.50
2022-10-01T03:24:11.728Z,35.28
2022-10-01T03:26:38.682Z,33.58
2022-10-01T03:29:06.312Z,35.45
2022-10-01T03:31:33.747Z,33.25
2022-10-01T03:34:06.345Z,40.20
2022-10-01T03:37:00.828Z,33.05
2022-10-01T03:39:50.157Z,38.22
2022-10-01T03:45:09.160Z,32.97
2022-10-01T03:47:42.198Z,30.67
2022-10-01T03:50:37.982Z,33.60
2022-10-01T03:53:06.627Z,32.45
2022-10-01T03:55:33.668Z,32.35
2022-10-01T03:58:01.536Z,35.17
2022-10-01T04:00:28.505Z,32.25
2022-10-01T04:02:55.415Z,35.30
2022-10-01T04:05:25.643Z,34.15
2022-10-01T04:07:52.593Z,33.00
2022-10-01T04:10:19.542Z,35.17
2022-10-01T04:12:48.983Z,34.78
2022-10-01T04:15:18.810Z,34.40
2022-10-01T04:17:46.213Z,35.63
2022-10-01T04:20:25.492Z,39.22
2022-10-01T04:22:53.373Z,44.53
2022-10-01T04:25:20.233Z,35.50
2022-10-01T04:28:16.632Z,39.22
2022-10-01T04:30:45.199Z,34.15
2022-10-01T04:33:18.436Z,34.90
2022-10-01T04:38:16.936Z,33.88
2022-10-01T04:40:48.485Z,37.90
2022-10-01T04:43:21.989Z,36.42
2022-10-01T04:46:01.638Z,36.30
2022-10-01T04:48:29.265Z,45.20
2022-10-01T04:50:56.447Z,36.50
2022-10-01T04:53:23.681Z,31.70
2022-10-01T04:55:50.891Z,32.00
2022-10-01T04:58:20.981Z,32.22
2022-10-01T05:00:50.111Z,35.50
2022-10-01T05:03:17.867Z,29.65
2022-10-01T05:05:54.746Z,33.63
2022-10-01T05:08:23.186Z,33.72
2022-10-01T05:10:50.271Z,28.35
2022-10-01T05:13:23.626Z,30.40
2022-10-01T05:15:52.498Z,27.50
2022-10-01T05:18:20.809Z,33.53
2022-10-01T05:21:11.610Z,30.42
2022-10-01T05:23:55.136Z,32.00
2022-10-01T05:26:23.127Z,25.92
2022-10-01T05:28:54.154Z,31.45
2022-10-01T05:31:21.490Z,30.25
2022-10-01T05:33:54.075Z,27.08
2022-10-01T05:36:21.149Z,37.20
2022-10-01T05:38:48.876Z,31.77
2022-10-01T05:41:16.420Z,28.40
2022-10-01T05:43:49.258Z,28.40
2022-10-01T05:46:20.158Z,35.47
2022-10-01T05:48:58.902Z,24.08
2022-10-01T05:51:30.074Z,27.10
2022-10-01T05:53:59.517Z,30.63
2022-10-01T05:56:26.756Z,32.33
2022-10-01T05:58:54.421Z,31.50
2022-10-01T06:01:37.525Z,28.25
2022-10-01T06:04:07.872Z,23.70
2022-10-01T06:06:35.602Z,28.88
2022-10-01T06:09:02.626Z,25.40
2022-10-01T06:11:35.249Z,29.23
2022-10-01T06:14:10.422Z,18.75
2022-10-01T06:17:00.609Z,21.27
2022-10-01T06:22:17.835Z,21.58
2022-10-01T06:24:45.291Z,17.55
2022-10-01T06:27:12.453Z,24.13
2022-10-01T06:29:42.695Z,16.27
2022-10-01T06:32:14.183Z,19.95
2022-10-01T06:34:41.305Z,20.38
2022-10-01T06:37:08.310Z,22.58
2022-10-01T06:39:35.104Z,19.02
2022-10-01T06:42:01.908Z,21.35
2022-10-01T06:44:28.676Z,17.67
2022-10-01T06:46:55.458Z,16.27
2022-10-01T06:49:22.793Z,16.40
2022-10-01T06:52:09.352Z,25.75
2022-10-01T06:54:36.189Z,15.75
2022-10-01T06:57:02.990Z,12.98
2022-10-01T06:59:30.658Z,18.50
2022-10-01T07:01:57.706Z,16.70
2022-10-01T07:04:25.424Z,13.77
2022-10-01T07:06:52.256Z,18.27
2022-10-01T07:09:19.089Z,20.85
2022-10-01T07:11:45.840Z,14.48
2022-10-01T07:14:12.678Z,16.75
2022-10-01T07:16:40.208Z,22.42
2022-10-01T07:19:07.250Z,13.57
2022-10-01T07:21:34.240Z,15.02
2022-10-01T07:24:01.370Z,20.23
2022-10-01T07:26:28.177Z,15.23
2022-10-01T07:28:55.249Z,15.77
2022-10-01T07:31:24.096Z,17.13
2022-10-01T07:33:57.168Z,14.77
2022-10-01T07:36:24.539Z,15.55
2022-10-01T07:38:52.168Z,22.27
2022-10-01T07:41:18.908Z,12.25
2022-10-01T07:43:46.786Z,13.32
2022-10-01T07:46:13.598Z,14.25
2022-10-01T07:48:41.270Z,13.20
2022-10-01T07:51:08.084Z,13.75
2022-10-01T07:53:34.905Z,17.45
2022-10-01T07:56:02.394Z,15.75
2022-10-01T07:58:29.499Z,22.27
2022-10-01T08:00:58.577Z,17.77
2022-10-01T08:03:25.545Z,14.25
2022-10-01T08:05:53.695Z,10.70
2022-10-01T08:08:21.374Z,13.02
2022-10-01T08:10:50.608Z,18.83
2022-10-01T08:13:17.823Z,17.75
2022-10-01T08:15:47.452Z,14.68
2022-10-01T08:18:14.692Z,19.38
2022-10-01T08:20:41.564Z,21.02
2022-10-01T08:23:13.132Z,14.85
2022-10-01T08:25:41.713Z,15.10
2022-10-01T08:28:11.216Z,21.52
2022-10-01T08:30:39.884Z,16.63
2022-10-01T08:33:08.216Z,19.98
2022-10-01T08:35:40.497Z,17.70
2022-10-01T08:38:07.831Z,18.08
2022-10-01T08:40:52.683Z,17.13
2022-10-01T08:43:25.764Z,21.35
2022-10-01T08:45:54.053Z,21.63
2022-10-01T08:48:31.119Z,17.75
2022-10-01T08:51:29.312Z,24.08
2022-10-01T08:54:03.960Z,23.95
2022-10-01T08:56:41.060Z,22.88
2022-10-01T08:59:44.603Z,20.48
2022-10-01T09:02:32.374Z,19.15
2022-10-01T09:05:02.291Z,22.42
2022-10-01T09:07:52.372Z,18.13
2022-10-01T09:10:28.170Z,22.52
2022-10-01T09:13:39.594Z,14.82
2022-10-01T09:16:16.727Z,17.90
2022-10-01T09:19:02.871Z,16.35
2022-10-01T09:21:43.354Z,14.82
2022-10-01T09:24:15.654Z,18.02
2022-10-01T09:26:51.010Z,16.60
2022-10-01T09:29:26.144Z,16.73
2022-10-01T09:31:53.621Z,21.60
2022-10-01T09:34:38.041Z,26.45
2022-10-01T09:37:32.703Z,30.70
2022-10-01T09:40:13.306Z,24.60
2022-10-01T09:42:41.067Z,26.65
2022-10-01T09:45:12.225Z,24.83
2022-10-01T09:47:43.574Z,15.10
2022-10-01T09:50:16.264Z,19.17
2022-10-01T09:52:44.494Z,14.30
2022-10-01T09:55:37.735Z,18.38
2022-10-01T09:58:09.033Z,17.38
2022-10-01T10:00:38.346Z,22.33
2022-10-01T10:03:05.908Z,13.98
2022-10-01T10:05:51.455Z,15.02
2022-10-01T10:08:44.579Z,11.75
2022-10-01T10:11:11.904Z,11.17
2022-10-01T10:13:49.689Z,10.85
2022-10-01T10:16:26.079Z,11.65
2022-10-01T10:19:00.606Z,11.90
2022-10-01T10:21:30.796Z,9.70
2022-10-01T10:24:02.226Z,9.90
2022-10-01T10:26:36.372Z,9.85
2022-10-01T10:29:06.167Z,8.95
2022-10-01T10:31:44.408Z,8.77
2022-10-01T10:34:24.182Z,9.38
2022-10-01T10:36:57.301Z,9.45
2022-10-01T10:39:27.892Z,8.60
2022-10-01T10:41:56.868Z,11.43
2022-10-01T10:44:25.659Z,9.82
2022-10-01T10:46:54.028Z,9.77
2022-10-01T10:49:29.277Z,11.93
2022-10-01T10:51:58.628Z,10.40
2022-10-01T10:54:40.248Z,8.10
2022-10-01T10:57:31.766Z,12.55
2022-10-01T11:00:00.564Z,7.25
2022-10-01T11:02:30.602Z,7.03
2022-10-01T11:05:04.831Z,8.35
2022-10-01T11:07:32.121Z,7.50
2022-10-01T11:10:17.697Z,6.50
2022-10-01T11:12:51.429Z,7.28
2022-10-01T11:15:25.188Z,7.40
2022-10-01T11:17:59.138Z,8.02
2022-10-01T11:20:38.434Z,7.20
2022-10-01T11:23:26.583Z,7.15
2022-10-01T11:26:40.906Z,13.77
2022-10-01T11:29:16.963Z,8.45
2022-10-01T11:31:58.960Z,8.32
2022-10-01T11:39:00.499Z,9.85
2022-10-01T11:41:30.947Z,8.63
2022-10-01T11:44:33.779Z,7.75
2022-10-01T11:47:16.526Z,8.25
2022-10-01T11:50:01.121Z,11.80
2022-10-01T11:52:48.349Z,11.18
2022-10-01T11:55:57.022Z,6.35
2022-10-01T11:59:00.239Z,6.10
2022-10-01T12:01:43.087Z,5.65
2022-10-01T12:04:28.456Z,4.65
2022-10-01T12:07:01.321Z,5.43
2022-10-01T12:09:55.516Z,8.52
2022-10-01T12:12:26.951Z,12.13
2022-10-01T12:14:54.233Z,9.55
2022-10-01T12:18:01.683Z,6.22
2022-10-01T12:21:23.191Z,5.05
2022-10-01T12:29:29.466Z,8.85
2022-10-01T12:32:41.734Z,5.85
2022-10-01T12:35:44.301Z,9.40
2022-10-01T12:38:46.648Z,6.38
2022-10-01T12:42:00.028Z,4.82
2022-10-01T12:44:51.093Z,4.90
2022-10-01T12:48:04.049Z,4.75
2022-10-01T12:55:33.014Z,7.00
2022-10-01T13:02:16.366Z,9.38
2022-10-01T13:05:15.622Z,12.25
2022-10-01T13:08:48.060Z,5.68
2022-10-01T13:16:46.744Z,5.55
2022-10-01T13:20:25.453Z,4.97
2022-10-01T13:23:16.691Z,4.40
2022-10-01T13:26:26.405Z,6.93
2022-10-01T13:46:37.930Z,3.67
2022-10-01T13:59:58.851Z,7.65
2022-10-01T14:02:35.156Z,6.38
2022-10-01T14:05:23.163Z,6.13
2022-10-01T14:07:59.004Z,5.18
2022-10-01T14:10:35.202Z,3.60
2022-10-01T14:13:22.070Z,2.60
2022-10-01T14:16:00.438Z,4.60
2022-10-01T14:18:32.819Z,3.85
2022-10-01T14:21:49.380Z,8.73
2022-10-01T14:24:43.504Z,2.78
2022-10-01T14:27:33.598Z,3.35
2022-10-01T14:30:12.335Z,6.03
2022-10-01T14:33:09.599Z,10.68
2022-10-01T14:35:44.441Z,4.30
2022-10-01T14:38:15.757Z,2.42
2022-10-01T14:40:47.191Z,6.68
2022-10-01T14:43:25.262Z,19.67
2022-10-01T14:46:06.332Z,15.63
2022-10-01T14:48:35.880Z,2.72
2022-10-01T14:51:06.313Z,4.70
2022-10-01T14:53:36.771Z,5.70
2022-10-01T14:56:08.597Z,5.15
2022-10-01T14:58:40.111Z,4.38
2022-10-01T15:01:08.092Z,11.27
2022-10-01T15:03:39.908Z,3.70
2022-10-01T15:06:26.110Z,2.55
2022-10-01T15:08:55.397Z,2.75
2022-10-01T15:11:25.261Z,2.13
2022-10-01T15:13:55.810Z,3.63
2022-10-01T15:16:25.706Z,2.58
2022-10-01T15:19:03.779Z,6.03
2022-10-01T15:21:41.656Z,2.67
2022-10-01T15:24:22.515Z,1.45
2022-10-01T15:26:52.656Z,2.75
2022-10-01T15:29:36.407Z,2.47
2022-10-01T15:32:07.420Z,1.67
2022-10-01T15:34:35.488Z,3.92
2022-10-01T15:37:03.771Z,3.38
2022-10-01T15:39:33.481Z,3.67
2022-10-01T15:42:25.921Z,8.05
2022-10-01T15:45:24.000Z,2.88
2022-10-01T15:47:57.273Z,3.35
2022-10-01T15:50:28.235Z,2.10
2022-10-01T15:53:10.730Z,1.92
2022-10-01T15:55:42.784Z,6.23
2022-10-01T15:58:10.678Z,4.10
2022-10-01T16:00:50.289Z,4.47
2022-10-01T16:03:23.510Z,3.55
2022-10-01T16:05:58.714Z,4.43
2022-10-01T16:08:34.642Z,3.85
2022-10-01T16:11:20.082Z,6.15
2022-10-01T16:13:50.452Z,3.75
2022-10-01T16:16:24.656Z,9.55
2022-10-01T16:19:00.549Z,42.33
2022-10-01T16:21:28.157Z,17.25
2022-10-01T16:23:56.224Z,28.60
2022-10-01T16:26:29.903Z,22.90
2022-10-01T16:31:26.842Z,5.18
2022-10-01T16:33:55.494Z,7.25
2022-10-01T16:36:38.981Z,2.60
2022-10-01T16:39:06.680Z,8.30
2022-10-01T16:41:35.561Z,4.80
2022-10-01T16:44:05.126Z,5.25
2022-10-01T16:46:36.947Z,4.03
2022-10-01T16:49:15.564Z,3.00
2022-10-01T16:51:43.745Z,7.25
2022-10-01T16:54:24.910Z,3.65
2022-10-01T16:56:55.433Z,9.27
2022-10-01T16:59:23.901Z,5.65
2022-10-01T17:01:55.851Z,5.30
2022-10-01T17:04:23.503Z,2.72
2022-10-01T17:06:50.947Z,5.38
2022-10-01T17:09:18.263Z,4.25
2022-10-01T17:11:46.531Z,11.73
2022-10-01T17:14:17.030Z,12.00
2022-10-01T17:16:45.413Z,3.40
2022-10-01T17:19:19.240Z,3.13
2022-10-01T17:21:46.867Z,3.58
2022-10-01T17:24:14.779Z,6.82
2022-10-01T17:26:43.192Z,6.40
2022-10-01T17:29:10.834Z,6.30
2022-10-01T17:31:51.843Z,10.68
2022-10-01T17:34:29.417Z,7.35
2022-10-01T17:37:01.771Z,4.97
2022-10-01T17:43:41.729Z,11.70
2022-10-01T17:46:29.507Z,6.28
2022-10-01T17:49:16.154Z,7.88
2022-10-01T17:52:14.951Z,5.22
2022-10-01T17:55:21.183Z,6.55
2022-10-01T17:58:00.126Z,5.90
2022-10-01T18:07:33.745Z,7.30
2022-10-01T18:10:48.337Z,6.97
2022-10-01T18:15:05.468Z,2.25
2022-10-01T18:24:37.487Z,3.63
2022-10-01T18:27:39.499Z,3.63
2022-10-01T18:30:18.779Z,5.68
2022-10-01T18:34:04.126Z,4.07
2022-10-01T18:41:46.222Z,2.15
2022-10-01T18:45:24.179Z,5.70
2022-10-01T18:47:56.178Z,8.85
2022-10-01T18:55:51.592Z,14.00
2022-10-01T18:59:56.085Z,4.50
2022-10-01T19:03:27.015Z,7.13
2022-10-01T19:07:55.512Z,6.28
2022-10-01T19:11:53.186Z,2.80
2022-10-01T19:15:02.666Z,2.55
2022-10-01T19:18:03.621Z,4.43
2022-10-01T19:25:48.148Z,4.50
2022-10-01T19:29:07.426Z,2.10
2022-10-01T19:32:17.689Z,5.85
2022-10-01T19:35:15.757Z,4.57
2022-10-01T19:38:17.556Z,4.70
2022-10-01T19:45:20.977Z,6.65
2022-10-01T20:01:04.377Z,4.05
2022-10-01T20:10:40.154Z,3.67
2022-10-01T20:25:35.786Z,9.05
2022-10-01T20:28:54.472Z,4.43
2022-10-01T20:31:39.911Z,9.07
2022-10-01T20:35:06.406Z,12.55
2022-10-01T20:39:42.988Z,8.82
2022-10-01T20:42:27.938Z,5.60
2022-10-01T20:45:02.253Z,6.93
2022-10-01T20:54:33.736Z,6.20
2022-10-01T20:57:26.135Z,8.27
2022-10-01T20:59:55.532Z,7.47
2022-10-01T21:07:15.650Z,5.18
2022-10-01T21:10:55.892Z,5.38
2022-10-01T21:14:22.855Z,9.73
2022-10-01T21:17:49.334Z,7.15
2022-10-01T21:21:09.532Z,4.70
2022-10-01T21:24:41.891Z,4.18
2022-10-01T21:28:08.399Z,6.55
2022-10-01T21:31:50.231Z,9.80
2022-10-01T21:35:47.601Z,4.35
2022-10-01T21:38:54.396Z,10.38
2022-10-01T21:41:29.785Z,9.48
2022-10-01T21:44:11.386Z,6.70
2022-10-01T21:47:38.695Z,6.40
2022-10-01T21:51:06.119Z,6.18
2022-10-01T21:53:45.675Z,3.58
2022-10-01T21:56:20.533Z,7.50
2022-10-01T22:03:35.656Z,9.05
2022-10-01T22:10:31.859Z,8.23
2022-10-01T22:13:03.524Z,14.25
2022-10-01T22:15:39.871Z,9.20
2022-10-01T22:19:00.108Z,4.43
2022-10-01T22:25:31.118Z,7.57
2022-10-01T22:31:34.302Z,8.32
2022-10-01T22:34:46.470Z,4.90
2022-10-01T22:37:23.349Z,9.25
2022-10-01T22:39:56.577Z,3.22
2022-10-01T22:42:30.605Z,9.77
2022-10-01T22:45:04.504Z,6.53
2022-10-01T22:47:53.220Z,6.90
2022-10-01T22:51:19.769Z,7.93
2022-10-01T22:57:34.353Z,4.40
2022-10-01T23:00:36.180Z,3.90
2022-10-01T23:03:16.526Z,3.88
2022-10-01T23:06:13.726Z,4.47
2022-10-01T23:09:14.735Z,7.68
2022-10-01T23:12:22.944Z,5.15
2022-10-01T23:15:16.480Z,3.13
2022-10-01T23:17:56.778Z,7.30
2022-10-01T23:20:36.534Z,8.48
2022-10-01T23:24:02.181Z,8.88
2022-10-01T23:26:47.145Z,5.20
2022-10-01T23:30:20.258Z,5.72
2022-10-01T23:33:29.863Z,5.30
2022-10-01T23:37:24.093Z,4.55
2022-10-01T23:40:08.185Z,4.00
2022-10-01T23:42:54.093Z,3.05
2022-10-01T23:45:41.152Z,5.05
2022-10-01T23:49:03.567Z,2.50
2022-10-01T23:51:54.079Z,5.03
